createdAt,value
2023-03-20T00:01:19.437Z,84.7
2023-03-20T00:03:15.112Z,84.7
2023-03-20T00:05:18.026Z,84.7
2023-03-20T00:07:14.811Z,84.7
2023-03-20T00:09:14.592Z,85.2
2023-03-20T00:11:27.310Z,85.8
2023-03-20T00:13:24.114Z,85
2023-03-20T00:15:25.373Z,84.9
2023-03-20T00:17:18.470Z,84.9
2023-03-20T00:19:17.192Z,84.9
2023-03-20T00:21:17.743Z,85.6
2023-03-20T00:23:13.872Z,85.6
2023-03-20T00:25:14.981Z,85.5
2023-03-20T00:27:15.526Z,85.5
2023-03-20T00:29:19.571Z,85.5
2023-03-20T00:31:19.938Z,85.7
2023-03-20T00:33:13.206Z,85.7
2023-03-20T00:35:18.319Z,86
2023-03-20T00:37:12.181Z,86
2023-03-20T00:39:11.981Z,86
2023-03-20T00:41:22.988Z,86.2
2023-03-20T00:43:13.490Z,86.2
2023-03-20T00:45:14.496Z,86.3
2023-03-20T00:47:16.033Z,86.3
2023-03-20T00:49:12.432Z,86.3
2023-03-20T00:51:10.958Z,86.3
2023-03-20T00:53:11.476Z,86.3
2023-03-20T00:55:10.795Z,86.3
2023-03-20T00:57:14.062Z,86.3
2023-03-20T00:59:16.419Z,86.3
2023-03-20T01:01:10.011Z,86.3
2023-03-20T01:03:14.586Z,86.3
2023-03-20T01:05:09.566Z,86.3
2023-03-20T01:07:13.238Z,86.3
2023-03-20T01:09:09.417Z,86.3
2023-03-20T01:11:11.868Z,86.3
2023-03-20T01:13:18.273Z,86.3
2023-03-20T01:15:18.533Z,86.4
2023-03-20T01:17:16.341Z,86.4
2023-03-20T01:19:11.012Z,86.4
2023-03-20T01:21:08.882Z,86.4
2023-03-20T01:23:08.084Z,86.4
2023-03-20T01:25:08.566Z,86.1
2023-03-20T01:27:13.370Z,86.1
2023-03-20T01:29:17.058Z,86.1
2023-03-20T01:31:09.063Z,86.1
2023-03-20T01:33:13.673Z,86.1
2023-03-20T01:35:07.966Z,86.1
2023-03-20T01:37:12.549Z,85.6
2023-03-20T01:39:06.366Z,85.6
2023-03-20T01:41:12.207Z,85.6
2023-03-20T01:43:14.513Z,85.6
2023-03-20T01:45:16.075Z,85.8
2023-03-20T01:47:15.590Z,85.8
2023-03-20T01:49:23.971Z,85.8
2023-03-20T01:51:05.829Z,85.8
2023-03-20T01:53:13.733Z,85.8
2023-03-20T01:55:06.549Z,85.5
2023-03-20T01:57:10.453Z,85.5
2023-03-20T01:59:09.453Z,85.5
2023-03-20T02:01:07.594Z,85.5
2023-03-20T02:03:22.072Z,85.5
2023-03-20T02:05:10.448Z,85.3
2023-03-20T02:07:13.960Z,85.1
2023-03-20T02:09:08.283Z,85.1
2023-03-20T02:11:05.197Z,85.1
2023-03-20T02:13:10.017Z,85.1
2023-03-20T02:15:19.581Z,85.3
2023-03-20T02:17:12.025Z,85.3
2023-03-20T02:19:05.960Z,85.3
2023-03-20T02:21:29.427Z,85.6
2023-03-20T02:23:32.899Z,85.6
2023-03-20T02:25:36.316Z,85.2
2023-03-20T02:27:12.157Z,85.2
2023-03-20T02:29:27.290Z,85.2
2023-03-20T02:31:24.076Z,85.2
2023-03-20T02:33:24.287Z,85.2
2023-03-20T02:35:26.263Z,85.4
2023-03-20T02:37:31.185Z,85.4
2023-03-20T02:39:20.022Z,85.4
2023-03-20T02:41:08.646Z,85.4
2023-03-20T02:43:09.777Z,85.4
2023-03-20T02:45:10.722Z,85.9
2023-03-20T02:47:05.452Z,86.2
2023-03-20T02:49:10.740Z,86.2
2023-03-20T02:51:07.387Z,86.2
2023-03-20T02:53:17.897Z,86.2
2023-03-20T02:55:12.528Z,86.2
2023-03-20T02:57:04.919Z,86.2
2023-03-20T02:59:12.461Z,86.2
2023-03-20T03:01:06.865Z,86.2
2023-03-20T03:03:06.566Z,86.2
2023-03-20T03:05:03.755Z,86.3
2023-03-20T03:07:01.848Z,86.3
2023-03-20T03:09:04.970Z,86.3
2023-03-20T03:11:04.642Z,86.3
2023-03-20T03:13:00.871Z,86.3
2023-03-20T03:15:02.126Z,86.2
2023-03-20T03:17:00.949Z,85.6
2023-03-20T03:19:05.445Z,85.6
2023-03-20T03:21:01.325Z,85.6
2023-03-20T03:23:00.471Z,85.6
2023-03-20T03:24:57.874Z,85.9
2023-03-20T03:27:00.299Z,85.9
2023-03-20T03:29:01.484Z,85.4
2023-03-20T03:30:58.503Z,85.4
2023-03-20T03:33:08.796Z,85.4
2023-03-20T03:34:59.265Z,85.5
2023-03-20T03:37:06.258Z,85.5
2023-03-20T03:39:01.252Z,85.5
2023-03-20T03:41:10.808Z,85.5
2023-03-20T03:43:01.016Z,85.5
2023-03-20T03:45:02.852Z,85.4
2023-03-20T03:47:02.009Z,85.4
2023-03-20T03:48:57.851Z,85.4
2023-03-20T03:50:58.829Z,85.4
2023-03-20T03:52:59.234Z,85.4
2023-03-20T03:55:14.963Z,85
2023-03-20T03:56:57.093Z,85
2023-03-20T03:58:58.816Z,85
2023-03-20T04:00:58.235Z,85
2023-03-20T04:02:58.277Z,85
2023-03-20T04:04:55.828Z,85.3
2023-03-20T04:06:54.733Z,85.3
2023-03-20T04:08:55.027Z,85.3
2023-03-20T04:10:54.307Z,85.3
2023-03-20T04:12:54.188Z,85.3
2023-03-20T04:14:56.978Z,85.3
2023-03-20T04:16:54.818Z,85.3
2023-03-20T04:18:54.338Z,84.8
2023-03-20T04:20:53.610Z,84.8
2023-03-20T04:22:54.010Z,84.8
2023-03-20T04:24:53.840Z,84.9
2023-03-20T04:26:53.706Z,84.9
2023-03-20T04:29:09.010Z,84
2023-03-20T04:31:08.306Z,84
2023-03-20T04:33:00.900Z,83.4
2023-03-20T04:35:03.087Z,83.1
2023-03-20T04:36:52.865Z,83.1
2023-03-20T04:38:52.366Z,83.1
2023-03-20T04:40:52.536Z,82.7
2023-03-20T04:42:52.404Z,82.7
2023-03-20T04:44:52.604Z,83
2023-03-20T04:46:51.713Z,83
2023-03-20T04:48:52.455Z,83
2023-03-20T04:50:54.599Z,82.1
2023-03-20T04:52:51.857Z,82.1
2023-03-20T04:54:51.255Z,81.6
2023-03-20T04:56:53.609Z,81.6
2023-03-20T04:58:53.344Z,81.6
2023-03-20T05:00:51.184Z,81.6
2023-03-20T05:02:50.902Z,81.5
2023-03-20T05:04:50.697Z,81.6
2023-03-20T05:06:53.860Z,81.6
2023-03-20T05:08:51.982Z,81
2023-03-20T05:11:05.188Z,81
2023-03-20T05:13:05.091Z,81
2023-03-20T05:15:07.826Z,80.4
2023-03-20T05:16:59.239Z,79.8
2023-03-20T05:19:04.889Z,79.8
2023-03-20T05:21:04.944Z,79.2
2023-03-20T05:23:06.357Z,79.2
2023-03-20T05:25:05.459Z,78.3
2023-03-20T05:26:59.890Z,78.3
2023-03-20T05:28:58.861Z,77.8
2023-03-20T05:31:04.153Z,77.2
2023-03-20T05:33:04.496Z,76.5
2023-03-20T05:34:57.029Z,76.5
2023-03-20T05:37:03.820Z,75.9
2023-03-20T05:39:03.778Z,75.9
2023-03-20T05:40:59.221Z,75.9
2023-03-20T05:43:03.825Z,75.2
2023-03-20T05:44:49.701Z,74.9
2023-03-20T05:47:10.513Z,74.9
2023-03-20T05:49:00.809Z,74.9
2023-03-20T05:50:54.024Z,74.1
2023-03-20T05:52:55.190Z,74.7
2023-03-20T05:54:57.104Z,75.3
2023-03-20T05:57:01.263Z,74.8
2023-03-20T05:59:10.465Z,74.8
2023-03-20T06:01:06.039Z,74.8
2023-03-20T06:03:03.078Z,74.2
2023-03-20T06:05:00.954Z,74.1
2023-03-20T06:06:48.344Z,74.1
2023-03-20T06:08:48.185Z,74.1
2023-03-20T06:10:50.228Z,74.1
2023-03-20T06:12:48.069Z,74.1
2023-03-20T06:14:47.744Z,74.3
2023-03-20T06:16:48.021Z,74.3
2023-03-20T06:18:47.601Z,74.3
2023-03-20T06:20:52.312Z,74.3
2023-03-20T06:22:49.437Z,73.7
2023-03-20T06:24:47.683Z,72.8
2023-03-20T06:26:47.446Z,72.8
2023-03-20T06:28:47.439Z,72.8
2023-03-20T06:30:50.532Z,72.2
2023-03-20T06:32:47.144Z,71.7
2023-03-20T06:34:47.023Z,71.2
2023-03-20T06:36:52.175Z,71.2
2023-03-20T06:38:49.149Z,71.2
2023-03-20T06:40:49.660Z,71.2
2023-03-20T06:42:47.998Z,70.6
2023-03-20T06:44:49.001Z,70.7
2023-03-20T06:46:46.695Z,70.7
2023-03-20T06:48:46.644Z,70.7
2023-03-20T06:50:50.324Z,70.7
2023-03-20T06:52:59.101Z,69.8
2023-03-20T06:54:46.543Z,69.6
2023-03-20T06:56:46.497Z,68.3
2023-03-20T06:58:46.637Z,68.3
2023-03-20T07:00:47.057Z,67.2
2023-03-20T07:02:47.964Z,66
2023-03-20T07:04:46.173Z,65.7
2023-03-20T07:06:46.540Z,65.7
2023-03-20T07:08:46.470Z,65.2
2023-03-20T07:10:46.190Z,64.3
2023-03-20T07:12:47.100Z,65
2023-03-20T07:14:51.430Z,64.2
2023-03-20T07:16:46.100Z,64.2
2023-03-20T07:18:46.452Z,64.2
2023-03-20T07:20:46.152Z,63.3
2023-03-20T07:22:51.116Z,62.7
2023-03-20T07:24:47.359Z,62.4
2023-03-20T07:26:46.108Z,62.4
2023-03-20T07:28:51.688Z,62.1
2023-03-20T07:30:49.842Z,62.1
2023-03-20T07:32:46.578Z,61.2
2023-03-20T07:34:46.763Z,61
2023-03-20T07:36:47.329Z,60.4
2023-03-20T07:38:46.676Z,59.4
2023-03-20T07:40:49.446Z,58.1
2023-03-20T07:42:47.679Z,58.1
2023-03-20T07:44:46.355Z,58.1
2023-03-20T07:46:46.339Z,58.1
2023-03-20T07:48:46.165Z,58.3
2023-03-20T07:50:46.642Z,57.8
2023-03-20T07:52:47.413Z,57.8
2023-03-20T07:54:48.007Z,58.2
2023-03-20T07:56:46.431Z,58.3
2023-03-20T07:58:46.336Z,57.7
2023-03-20T08:00:46.373Z,57.7
2023-03-20T08:02:46.627Z,57.7
2023-03-20T08:04:46.655Z,56.7
2023-03-20T08:06:46.433Z,56.7
2023-03-20T08:08:46.615Z,56.7
2023-03-20T08:10:46.521Z,55.6
2023-03-20T08:12:46.533Z,55.6
2023-03-20T08:14:46.746Z,55.9
2023-03-20T08:16:46.682Z,54.5
2023-03-20T08:18:46.682Z,53.7
2023-03-20T08:20:46.796Z,53.7
2023-03-20T08:22:46.889Z,54.2
2023-03-20T08:24:46.810Z,52.5
2023-03-20T08:26:47.062Z,50.9
2023-03-20T08:28:48.676Z,51.3
2023-03-20T08:30:47.226Z,50.3
2023-03-20T08:32:47.809Z,52
2023-03-20T08:34:47.328Z,50.3
2023-03-20T08:36:47.379Z,47.8
2023-03-20T08:38:48.291Z,48.7
2023-03-20T08:40:47.547Z,49.5
2023-03-20T08:42:47.616Z,46.4
2023-03-20T08:44:47.868Z,44.2
2023-03-20T08:46:47.832Z,46
2023-03-20T08:48:47.932Z,44
2023-03-20T08:50:48.727Z,46.2
2023-03-20T08:52:48.358Z,43.8
2023-03-20T08:54:48.815Z,44.6
2023-03-20T08:56:48.456Z,43.2
2023-03-20T08:58:48.414Z,43.9
2023-03-20T09:00:48.657Z,45
2023-03-20T09:02:49.446Z,43.4
2023-03-20T09:04:48.708Z,44.4
2023-03-20T09:06:49.638Z,44.6
2023-03-20T09:08:49.000Z,44.6
2023-03-20T09:10:51.395Z,46.4
2023-03-20T09:12:49.158Z,44.4
2023-03-20T09:14:49.261Z,42.8
2023-03-20T09:16:49.467Z,46.8
2023-03-20T09:18:49.469Z,45.5
2023-03-20T09:20:50.199Z,46.2
2023-03-20T09:22:49.594Z,44.6
2023-03-20T09:24:49.733Z,45
2023-03-20T09:26:49.873Z,45.6
2023-03-20T09:28:50.569Z,45.3
2023-03-20T09:30:54.216Z,43.5
2023-03-20T09:32:51.055Z,43.5
2023-03-20T09:34:50.289Z,43.5
2023-03-20T09:36:50.478Z,45
2023-03-20T09:38:50.357Z,43.9
2023-03-20T09:40:53.272Z,43.8
2023-03-20T09:42:58.011Z,44.9
2023-03-20T09:44:58.460Z,48.1
2023-03-20T09:47:18.399Z,45.3
2023-03-20T09:48:57.863Z,43.9
2023-03-20T09:51:00.868Z,44.7
2023-03-20T09:52:58.879Z,43.7
2023-03-20T09:54:55.114Z,43.5
2023-03-20T09:56:52.106Z,41.7
2023-03-20T09:58:54.598Z,40.1
2023-03-20T10:00:54.765Z,40.8
2023-03-20T10:02:57.562Z,40.8
2023-03-20T10:04:54.648Z,41.3
2023-03-20T10:06:51.632Z,39.7
2023-03-20T10:08:52.080Z,42
2023-03-20T10:10:58.090Z,43
2023-03-20T10:13:05.066Z,41.6
2023-03-20T10:15:00.405Z,42
2023-03-20T10:17:04.545Z,42.7
2023-03-20T10:19:01.384Z,41.4
2023-03-20T10:20:58.566Z,42.8
2023-03-20T10:22:58.177Z,45.1
2023-03-20T10:24:58.446Z,40.6
2023-03-20T10:26:55.290Z,44.2
2023-03-20T10:28:57.017Z,40.6
2023-03-20T10:31:05.927Z,42.2
2023-03-20T10:33:06.003Z,43
2023-03-20T10:35:01.606Z,43.6
2023-03-20T10:37:06.744Z,40.9
2023-03-20T10:39:01.092Z,41.8
2023-03-20T10:40:55.942Z,39.9
2023-03-20T10:42:57.155Z,40.8
2023-03-20T10:44:58.167Z,41.4
2023-03-20T10:46:55.519Z,41.4
2023-03-20T10:48:59.512Z,42.1
2023-03-20T10:50:56.384Z,42.9
2023-03-20T10:52:55.543Z,41.1
2023-03-20T10:54:57.390Z,41.6
2023-03-20T10:56:57.232Z,41
2023-03-20T10:59:00.485Z,41
2023-03-20T11:00:55.571Z,41
2023-03-20T11:02:53.893Z,39.6
2023-03-20T11:04:53.717Z,41.1
2023-03-20T11:07:01.337Z,39.8
2023-03-20T11:08:54.552Z,40.8
2023-03-20T11:10:59.482Z,41
2023-03-20T11:12:54.110Z,40.6
2023-03-20T11:14:59.224Z,39.7
2023-03-20T11:16:55.907Z,39.7
2023-03-20T11:18:54.456Z,40.7
2023-03-20T11:20:56.215Z,40.7
2023-03-20T11:22:58.888Z,43.3
2023-03-20T11:24:57.746Z,39.4
2023-03-20T11:27:04.090Z,40.6
2023-03-20T11:28:57.670Z,41.1
2023-03-20T11:31:05.210Z,41.1
2023-03-20T11:32:55.135Z,40.7
2023-03-20T11:34:55.211Z,40.7
2023-03-20T11:37:09.228Z,39.8
2023-03-20T11:39:04.692Z,39.8
2023-03-20T11:40:55.324Z,40.6
2023-03-20T11:43:01.959Z,41.3
2023-03-20T11:44:58.449Z,39.8
2023-03-20T11:46:58.281Z,40.4
2023-03-20T11:49:06.448Z,40.3
2023-03-20T11:51:01.945Z,40.1
2023-03-20T11:52:56.438Z,40.1
2023-03-20T11:54:58.317Z,41.6
2023-03-20T11:56:57.516Z,39.9
2023-03-20T11:58:58.065Z,41.5
2023-03-20T12:00:58.159Z,41.6
2023-03-20T12:02:56.252Z,39.4
2023-03-20T12:04:59.794Z,40.6
2023-03-20T12:07:00.756Z,39.7
2023-03-20T12:09:01.855Z,39.2
2023-03-20T12:11:02.108Z,39.9
2023-03-20T12:13:01.549Z,39.1
2023-03-20T12:15:02.710Z,39.6
2023-03-20T12:17:05.731Z,39.6
2023-03-20T12:19:01.760Z,39.6
2023-03-20T12:21:06.871Z,42.3
2023-03-20T12:23:05.287Z,41.4
2023-03-20T12:25:04.167Z,40.8
2023-03-20T12:27:07.206Z,41.4
2023-03-20T12:29:04.402Z,40.5
2023-03-20T12:31:12.807Z,41.3
2023-03-20T12:33:03.733Z,41.7
2023-03-20T12:35:04.677Z,43.4
2023-03-20T12:36:58.247Z,41.8
2023-03-20T12:38:58.242Z,41.8
2023-03-20T12:41:09.230Z,41.1
2023-03-20T12:43:03.529Z,41.1
2023-03-20T12:45:04.305Z,41.9
2023-03-20T12:47:22.058Z,40.8
2023-03-20T12:49:11.510Z,40.8
2023-03-20T12:51:07.019Z,41.4
2023-03-20T12:53:18.551Z,42.8
2023-03-20T12:55:21.016Z,42.8
2023-03-20T12:57:10.216Z,42.8
2023-03-20T12:59:06.147Z,42.8
2023-03-20T13:01:03.639Z,43.2
2023-03-20T13:03:12.034Z,43.2
2023-03-20T13:05:08.501Z,43.5
2023-03-20T13:07:01.206Z,43.5
2023-03-20T13:09:22.140Z,43.5
2023-03-20T13:11:09.008Z,45.5
2023-03-20T13:13:10.128Z,44.6
2023-03-20T13:15:14.495Z,43.6
2023-03-20T13:17:05.480Z,43.6
2023-03-20T13:19:05.628Z,43.6
2023-03-20T13:21:05.799Z,45.9
2023-03-20T13:23:09.986Z,43.9
2023-03-20T13:25:08.137Z,43.9
2023-03-20T13:27:07.337Z,44.2
2023-03-20T13:29:07.810Z,44.2
2023-03-20T13:31:13.516Z,44.2
2023-03-20T13:33:15.425Z,44.2
2023-03-20T13:35:16.891Z,44.1
2023-03-20T13:37:22.807Z,44.7
2023-03-20T13:39:06.144Z,43.9
2023-03-20T13:41:03.678Z,43.7
2023-03-20T13:43:12.953Z,44.5
2023-03-20T13:45:06.652Z,44.6
2023-03-20T13:47:05.129Z,44.6
2023-03-20T13:49:07.535Z,43.6
2023-03-20T13:51:12.009Z,44.6
2023-03-20T13:53:08.814Z,43.8
2023-03-20T13:55:19.010Z,44.8
2023-03-20T13:57:11.454Z,43.9
2023-03-20T13:59:27.827Z,43.9
2023-03-20T14:01:11.550Z,44.8
2023-03-20T14:03:20.145Z,45.3
2023-03-20T14:05:05.936Z,44.4
2023-03-20T14:07:02.409Z,44.4
2023-03-20T14:09:02.386Z,44.5
2023-03-20T14:11:13.381Z,45.1
2023-03-20T14:13:09.526Z,46.6
2023-03-20T14:15:03.714Z,49.5
2023-03-20T14:17:11.045Z,43.9
2023-03-20T14:19:08.840Z,44.5
2023-03-20T14:21:11.182Z,44.5
2023-03-20T14:23:03.840Z,45.2
2023-03-20T14:25:07.062Z,45.2
2023-03-20T14:27:03.958Z,46.7
2023-03-20T14:29:21.645Z,46.6
2023-03-20T14:31:21.619Z,46.5
2023-03-20T14:33:07.750Z,47
2023-03-20T14:35:21.794Z,47.3
2023-03-20T14:37:04.955Z,47.7
2023-03-20T14:39:14.840Z,47.7
2023-03-20T14:41:14.269Z,47.7
2023-03-20T14:43:17.360Z,47.7
2023-03-20T14:45:36.418Z,48.3
2023-03-20T14:47:16.915Z,48.3
2023-03-20T14:49:22.885Z,48.9
2023-03-20T14:51:16.681Z,48.9
2023-03-20T14:53:14.632Z,48.9
2023-03-20T14:55:28.572Z,49
2023-03-20T14:57:18.733Z,49
2023-03-20T14:59:05.806Z,49.9
2023-03-20T15:01:06.912Z,49.9
2023-03-20T15:03:08.360Z,49.9
2023-03-20T15:05:05.364Z,49.7
2023-03-20T15:07:13.345Z,49.7
2023-03-20T15:09:08.545Z,50.5
2023-03-20T15:11:08.351Z,50.5
2023-03-20T15:13:07.413Z,50.5
2023-03-20T15:15:07.282Z,51.3
2023-03-20T15:17:04.948Z,51.3
2023-03-20T15:19:14.467Z,51.3
2023-03-20T15:21:12.353Z,50.5
2023-03-20T15:23:05.100Z,50.5
2023-03-20T15:25:15.327Z,51
2023-03-20T15:27:05.166Z,51
2023-03-20T15:29:10.588Z,51.7
2023-03-20T15:31:06.312Z,52.3
2023-03-20T15:33:07.482Z,52.3
2023-03-20T15:35:06.116Z,52.5
2023-03-20T15:37:12.284Z,52.2
2023-03-20T15:39:12.768Z,52.9
2023-03-20T15:41:06.529Z,51.9
2023-03-20T15:43:13.298Z,51.9
2023-03-20T15:45:21.020Z,52.1
2023-03-20T15:47:13.177Z,52.1
2023-03-20T15:49:05.347Z,52.4
2023-03-20T15:51:06.160Z,52.4
2023-03-20T15:53:07.719Z,51.7
2023-03-20T15:55:13.488Z,52.7
2023-03-20T15:57:05.550Z,52.6
2023-03-20T15:59:06.032Z,53.4
2023-03-20T16:01:07.349Z,53.4
2023-03-20T16:03:10.725Z,54.8
2023-03-20T16:05:11.969Z,52.7
2023-03-20T16:07:05.534Z,53.2
2023-03-20T16:09:07.021Z,53.2
2023-03-20T16:11:12.255Z,52
2023-03-20T16:13:12.239Z,52.5
2023-03-20T16:15:06.618Z,51.3
2023-03-20T16:17:05.843Z,52.1
2023-03-20T16:19:07.289Z,52.1
2023-03-20T16:21:09.111Z,52.1
2023-03-20T16:23:07.812Z,51.4
2023-03-20T16:25:11.866Z,51
2023-03-20T16:27:07.679Z,51
2023-03-20T16:29:06.394Z,51
2023-03-20T16:31:11.389Z,52
2023-03-20T16:33:09.079Z,52
2023-03-20T16:35:15.461Z,51.5
2023-03-20T16:37:08.573Z,53
2023-03-20T16:39:08.245Z,53
2023-03-20T16:41:24.993Z,52.2
2023-03-20T16:43:12.293Z,53.1
2023-03-20T16:45:19.345Z,53
2023-03-20T16:47:17.323Z,52.6
2023-03-20T16:49:48.578Z,54.3
2023-03-20T16:51:15.844Z,54
2023-03-20T16:53:11.021Z,53.3
2023-03-20T16:55:13.453Z,53.2
2023-03-20T16:57:12.702Z,52.8
2023-03-20T16:59:07.445Z,53.4
2023-03-20T17:01:13.466Z,52.7
2023-03-20T17:03:13.949Z,52.1
2023-03-20T17:05:12.749Z,52.8
2023-03-20T17:07:09.648Z,52.3
2023-03-20T17:09:17.431Z,52.3
2023-03-20T17:11:12.715Z,51.5
2023-03-20T17:13:06.182Z,51.5
2023-03-20T17:15:07.289Z,52.5
2023-03-20T17:17:11.171Z,51.6
2023-03-20T17:19:10.206Z,51.6
2023-03-20T17:21:06.579Z,51.6
2023-03-20T17:23:12.264Z,52.4
2023-03-20T17:25:07.849Z,51.8
2023-03-20T17:27:08.927Z,51.2
2023-03-20T17:29:06.694Z,51.2
2023-03-20T17:31:09.317Z,51.2
2023-03-20T17:33:11.500Z,51.2
2023-03-20T17:35:07.284Z,51.6
2023-03-20T17:37:10.940Z,51.6
2023-03-20T17:39:06.612Z,52.5
2023-03-20T17:41:12.838Z,52.5
2023-03-20T17:43:10.209Z,52.5
2023-03-20T17:45:07.202Z,51.8
2023-03-20T17:47:12.559Z,52.5
2023-03-20T17:49:12.044Z,53.1
2023-03-20T17:51:08.157Z,51.4
2023-03-20T17:53:12.798Z,52.4
2023-03-20T17:55:07.741Z,53
2023-03-20T17:57:11.983Z,52
2023-03-20T17:59:06.323Z,52.9
2023-03-20T18:01:07.570Z,53.6
2023-03-20T18:03:06.365Z,53.6
2023-03-20T18:05:06.915Z,53
2023-03-20T18:07:08.007Z,52.5
2023-03-20T18:09:06.282Z,52.5
2023-03-20T18:11:08.588Z,52.5
2023-03-20T18:13:06.330Z,52.5
2023-03-20T18:15:07.772Z,52.2
2023-03-20T18:17:06.414Z,52.2
2023-03-20T18:19:06.414Z,53.2
2023-03-20T18:21:10.343Z,52.4
2023-03-20T18:23:06.972Z,53.8
2023-03-20T18:25:06.891Z,52.9
2023-03-20T18:27:06.948Z,53.5
2023-03-20T18:29:06.407Z,52.8
2023-03-20T18:31:06.753Z,53.9
2023-03-20T18:33:07.215Z,52.9
2023-03-20T18:35:07.514Z,53.6
2023-03-20T18:37:09.366Z,53.1
2023-03-20T18:39:06.442Z,53.1
2023-03-20T18:41:06.716Z,53.1
2023-03-20T18:43:06.514Z,53.8
2023-03-20T18:45:08.362Z,53.2
2023-03-20T18:47:06.513Z,53.4
2023-03-20T18:49:06.797Z,53.8
2023-03-20T18:51:06.462Z,53.1
2023-03-20T18:53:08.133Z,54.2
2023-03-20T18:55:06.980Z,54.4
2023-03-20T18:57:08.900Z,53.4
2023-03-20T18:59:07.337Z,54.2
2023-03-20T19:01:06.481Z,54.7
2023-03-20T19:03:07.990Z,54.7
2023-03-20T19:05:07.036Z,54.9
2023-03-20T19:07:06.710Z,54.9
2023-03-20T19:09:06.788Z,54.9
2023-03-20T19:11:06.613Z,55.7
2023-03-20T19:13:07.153Z,57.8
2023-03-20T19:15:07.587Z,56.3
2023-03-20T19:17:06.464Z,55.6
2023-03-20T19:19:08.198Z,56.8
2023-03-20T19:21:06.685Z,56.8
2023-03-20T19:23:08.867Z,56.8
2023-03-20T19:25:07.046Z,56.7
2023-03-20T19:27:06.452Z,57.8
2023-03-20T19:29:08.767Z,57.1
2023-03-20T19:31:07.797Z,57.1
2023-03-20T19:33:06.617Z,57.4
2023-03-20T19:37:06.433Z,58.7
2023-03-20T19:39:10.197Z,58.2
2023-03-20T19:41:08.851Z,59.2
2023-03-20T19:43:07.657Z,59.2
2023-03-20T19:45:08.144Z,58.9
2023-03-20T19:47:08.016Z,60.8
2023-03-20T19:49:17.395Z,60.3
2023-03-20T19:51:12.916Z,60.3
2023-03-20T19:53:08.990Z,60.9
2023-03-20T19:55:12.126Z,61.3
2023-03-20T19:57:06.568Z,61.3
2023-03-20T19:59:06.605Z,61.9
2023-03-20T20:01:14.716Z,62.6
2023-03-20T20:03:11.148Z,62.6
2023-03-20T20:05:07.709Z,63.1
2023-03-20T20:07:41.239Z,63.1
2023-03-20T20:09:06.492Z,63.7
2023-03-20T20:11:06.514Z,63.7
2023-03-20T20:13:06.555Z,63.7
2023-03-20T20:15:09.102Z,63.7
2023-03-20T20:17:06.537Z,63.7
2023-03-20T20:19:07.010Z,64.3
2023-03-20T20:21:59.881Z,64.3
2023-03-20T20:23:10.977Z,64.3
2023-03-20T20:25:08.350Z,64.8
2023-03-20T20:27:16.922Z,64.8
2023-03-20T20:29:06.371Z,64.8
2023-03-20T20:31:06.344Z,65.7
2023-03-20T20:33:09.565Z,64.7
2023-03-20T20:35:43.568Z,64.6
2023-03-20T20:39:06.752Z,65
2023-03-20T20:41:07.474Z,65.6
2023-03-20T20:43:10.532Z,65.6
2023-03-20T20:45:09.292Z,66.4
2023-03-20T20:47:07.003Z,65.6
2023-03-20T20:49:18.490Z,66.9
2023-03-20T20:51:06.149Z,66.9
2023-03-20T20:53:06.163Z,66.9
2023-03-20T20:55:22.157Z,66.9
2023-03-20T20:57:06.095Z,66.9
2023-03-20T20:59:06.368Z,67
2023-03-20T21:01:06.145Z,67
2023-03-20T21:03:05.978Z,67.8
2023-03-20T21:05:07.606Z,67.2
2023-03-20T21:07:10.355Z,67.2
2023-03-20T21:09:06.373Z,68
2023-03-20T21:11:05.924Z,68.7
2023-03-20T21:13:05.892Z,68.7
2023-03-20T21:15:06.734Z,68.6
2023-03-20T21:17:07.035Z,68.6
2023-03-20T21:19:05.922Z,68.6
2023-03-20T21:21:07.540Z,68.6
2023-03-20T21:23:05.865Z,68.6
2023-03-20T21:25:14.272Z,69.6
2023-03-20T21:27:08.597Z,69.6
2023-03-20T21:29:05.651Z,69.6
2023-03-20T21:31:23.420Z,69.6
2023-03-20T21:33:05.653Z,70.1
2023-03-20T21:35:06.431Z,70.7
2023-03-20T21:38:04.070Z,70.7
2023-03-20T21:39:08.578Z,71.2
2023-03-20T21:41:08.040Z,71.8
2023-03-20T21:43:05.503Z,71.8
2023-03-20T21:46:08.380Z,71.7
2023-03-20T21:52:24.675Z,72
2023-03-20T21:54:07.593Z,72
2023-03-20T21:55:57.519Z,72.6
2023-03-20T21:57:39.731Z,72.6
2023-03-20T21:59:45.216Z,72.6
2023-03-20T22:01:45.968Z,73.5
2023-03-20T22:03:10.816Z,73.5
2023-03-20T22:07:42.058Z,73.1
2023-03-20T22:19:59.411Z,74.2
2023-03-20T22:29:45.243Z,75.4
2023-03-20T22:34:09.037Z,74.3
2023-03-20T22:35:51.899Z,74.8
2023-03-20T22:39:39.564Z,74.6
2023-03-20T22:45:06.145Z,74.6
2023-03-20T22:47:04.888Z,74.6
2023-03-20T22:49:04.876Z,74.6
2023-03-20T22:51:05.587Z,74.6
2023-03-20T22:53:04.523Z,74.6
2023-03-20T22:55:05.016Z,74.7
2023-03-20T22:57:04.227Z,74.7
2023-03-20T22:59:04.177Z,74.7
2023-03-20T23:01:04.430Z,74.7
2023-03-20T23:03:37.702Z,74.7
2023-03-20T23:05:04.392Z,74.7
2023-03-20T23:07:03.922Z,74.7
2023-03-20T23:09:14.397Z,75.2
2023-03-20T23:11:06.796Z,74.5
2023-03-20T23:13:03.959Z,74.4
2023-03-20T23:15:04.530Z,75.5
2023-03-20T23:17:03.804Z,75
2023-03-20T23:19:03.696Z,75
2023-03-20T23:21:04.274Z,75.5
2023-03-20T23:23:03.528Z,75.5
2023-03-20T23:25:13.380Z,76.2
2023-03-20T23:27:03.539Z,76.2
2023-03-20T23:29:03.604Z,76.2
2023-03-20T23:31:10.422Z,76.7
2023-03-20T23:33:03.523Z,76
2023-03-20T23:35:03.972Z,76.3
2023-03-20T23:37:03.516Z,76.9
2023-03-20T23:39:04.367Z,76.2
2023-03-20T23:41:03.395Z,76.2
2023-03-20T23:43:03.354Z,76.2
2023-03-20T23:45:17.431Z,77.1
2023-03-20T23:47:11.313Z,76.4
2023-03-20T23:49:03.133Z,77.3
2023-03-20T23:51:03.320Z,76.3
2023-03-20T23:53:17.191Z,76.9
2023-03-20T23:55:03.660Z,77.2
2023-03-20T23:57:02.986Z,77.2
2023-03-20T23:59:14.689Z,77.2
